Time;durP1;ratioP1;P1;durP2;ratioP2;P2;SDS_P1;SDS_P2;PMS_P1;PMS_P2;Temp;Humidity;BMP_temperature;BMP_pressure;BME280_temperature;BME280_humidity;BME280_pressure;Samples;Min_cycle;Max_cycle;Signal;HPM_P1;HPM_P2
2023/08/16 00:02:17;;;;;;;6.10;2.13;;;18.80;99.90;;;;;;5042110;28;20191;-83
2023/08/16 00:04:45;;;;;;;2.90;2.50;;;18.80;99.90;;;;;;5042426;28;20184;-84
2023/08/16 00:07:11;;;;;;;3.10;1.97;;;18.80;99.90;;;;;;5037401;28;20762;-83
2023/08/16 00:09:40;;;;;;;2.40;1.97;;;18.70;99.90;;;;;;5065357;28;20433;-84
2023/08/16 00:12:06;;;;;;;7.13;2.30;;;18.70;99.90;;;;;;5048030;28;20437;-85
2023/08/16 00:14:32;;;;;;;4.20;2.47;;;18.70;99.90;;;;;;5043666;28;21021;-86
2023/08/16 00:16:57;;;;;;;4.70;2.80;;;18.70;99.90;;;;;;5044644;28;20553;-82
2023/08/16 00:19:24;;;;;;;4.37;2.60;;;18.60;99.90;;;;;;5076229;28;20268;-88
2023/08/16 00:21:50;;;;;;;5.60;2.83;;;18.60;99.90;;;;;;5050994;28;20183;-88
2023/08/16 00:24:15;;;;;;;2.83;2.40;;;18.50;99.90;;;;;;5050403;28;20442;-87
2023/08/16 00:26:41;;;;;;;8.10;2.67;;;18.50;99.90;;;;;;5061864;28;20205;-87
2023/08/16 00:29:06;;;;;;;6.40;3.03;;;18.50;99.90;;;;;;5066509;28;20817;-84
2023/08/16 00:31:32;;;;;;;3.50;3.20;;;18.60;99.90;;;;;;5036825;28;20184;-84
2023/08/16 00:33:57;;;;;;;6.43;3.00;;;18.70;99.90;;;;;;5047298;28;20188;-85
2023/08/16 00:36:22;;;;;;;3.07;2.40;;;18.70;99.90;;;;;;5043252;28;20208;-86
2023/08/16 00:38:49;;;;;;;5.80;3.23;;;18.70;99.90;;;;;;5060016;28;20192;-84
2023/08/16 00:41:14;;;;;;;5.60;3.60;;;18.70;99.90;;;;;;5056660;28;20269;-84
2023/08/16 00:43:40;;;;;;;2.90;2.60;;;18.80;99.90;;;;;;5034772;28;21123;-84
2023/08/16 00:46:13;;;;;;;5.03;2.60;;;18.80;99.90;;;;;;5054561;28;20260;-86
2023/08/16 00:48:41;;;;;;;4.30;2.90;;;18.70;99.90;;;;;;5041788;28;20443;-85
2023/08/16 00:51:08;;;;;;;5.97;3.83;;;18.80;99.90;;;;;;5038116;28;20438;-85
2023/08/16 00:53:34;;;;;;;4.70;3.97;;;18.70;99.90;;;;;;5040244;28;20446;-83
2023/08/16 00:56:02;;;;;;;5.53;4.07;;;18.70;99.90;;;;;;5043878;28;20470;-83
2023/08/16 00:58:28;;;;;;;5.63;3.40;;;18.60;99.90;;;;;;5059167;28;20434;-82
2023/08/16 01:00:54;;;;;;;7.73;4.30;;;18.60;99.90;;;;;;5034545;28;20520;-84
2023/08/16 01:03:19;;;;;;;6.30;4.37;;;18.50;99.90;;;;;;5050435;28;20181;-84
2023/08/16 01:05:45;;;;;;;6.00;4.00;;;18.50;99.90;;;;;;5034767;28;20507;-83
2023/08/16 01:08:10;;;;;;;5.40;4.17;;;18.60;99.90;;;;;;5032354;28;20187;-84
2023/08/16 01:10:54;;;;;;;6.50;4.53;;;18.60;99.90;;;;;;5028104;28;20191;-83
2023/08/16 01:13:26;;;;;;;8.93;4.70;;;18.70;99.90;;;;;;5036683;28;20632;-83
2023/08/16 01:15:55;;;;;;;7.00;3.83;;;18.70;99.90;;;;;;5055321;28;20450;-83
2023/08/16 01:18:23;;;;;;;4.57;4.07;;;18.70;99.90;;;;;;5035104;28;20991;-86
2023/08/16 01:20:50;;;;;;;5.97;4.10;;;18.70;99.90;;;;;;5034831;28;20502;-84
2023/08/16 01:23:43;;;;;;;4.90;4.50;;;18.70;99.90;;;;;;5031062;28;21407;-81
2023/08/16 01:26:22;;;;;;;10.07;4.93;;;18.70;99.90;;;;;;5050623;28;20508;-84
2023/08/16 01:28:49;;;;;;;6.03;4.40;;;18.70;99.90;;;;;;5033334;28;20459;-80
2023/08/16 01:31:15;;;;;;;10.40;4.30;;;18.80;99.90;;;;;;5035447;28;21120;-82
2023/08/16 01:33:40;;;;;;;5.60;4.60;;;18.80;99.90;;;;;;5065186;28;20439;-84
2023/08/16 01:36:06;;;;;;;6.27;4.23;;;18.70;99.90;;;;;;5059898;28;20574;-86
2023/08/16 01:38:31;;;;;;;6.50;4.60;;;18.60;99.90;;;;;;5035855;28;20179;-82
2023/08/16 01:41:28;;;;;;;4.80;4.33;;;18.50;99.90;;;;;;5057954;28;21197;-84
2023/08/16 01:43:55;;;;;;;4.00;3.60;;;18.50;99.90;;;;;;5028117;28;20185;-85
2023/08/16 01:46:22;;;;;;;8.27;4.77;;;18.50;99.90;;;;;;5055860;28;20455;-85
2023/08/16 01:48:49;;;;;;;6.90;4.37;;;18.50;99.90;;;;;;5034455;28;20438;-85
2023/08/16 01:51:15;;;;;;;5.80;5.10;;;18.40;99.90;;;;;;5042972;28;20523;-86
2023/08/16 01:53:40;;;;;;;6.97;5.00;;;18.30;99.90;;;;;;5039791;28;20456;-84
2023/08/16 01:56:06;;;;;;;9.27;4.87;;;18.30;99.90;;;;;;5040914;28;20461;-82
2023/08/16 01:58:31;;;;;;;7.73;5.17;;;18.30;99.90;;;;;;5034435;28;20180;-82
2023/08/16 02:00:57;;;;;;;7.17;5.00;;;18.30;99.90;;;;;;5036487;28;20434;-85
2023/08/16 02:03:22;;;;;;;7.00;4.90;;;18.40;99.90;;;;;;5038509;28;20192;-85
2023/08/16 02:05:48;;;;;;;6.27;5.53;;;18.40;99.90;;;;;;5034771;28;20287;-84
2023/08/16 02:08:13;;;;;;;5.60;4.90;;;18.40;99.90;;;;;;5042524;28;20781;-84
2023/08/16 02:10:39;;;;;;;11.40;5.60;;;18.40;99.90;;;;;;5042568;28;20271;-83
2023/08/16 02:13:05;;;;;;;8.47;4.87;;;18.40;99.90;;;;;;5056204;28;20204;-85
2023/08/16 02:15:31;;;;;;;8.30;5.60;;;18.30;99.90;;;;;;5037863;28;20460;-84
2023/08/16 02:17:56;;;;;;;8.60;6.10;;;18.30;99.90;;;;;;5039699;28;20299;-85
2023/08/16 02:20:22;;;;;;;5.37;4.70;;;18.20;99.90;;;;;;5037829;28;20210;-85
2023/08/16 02:22:47;;;;;;;7.07;5.53;;;18.20;99.90;;;;;;5040020;28;20214;-84
2023/08/16 02:25:13;;;;;;;9.23;6.17;;;18.20;99.90;;;;;;5055584;28;20719;-86
2023/08/16 02:27:40;;;;;;;7.17;5.60;;;18.20;99.90;;;;;;5031912;28;20676;-86
2023/08/16 02:30:06;;;;;;;8.90;6.00;;;18.20;99.90;;;;;;5036260;28;20188;-86
2023/08/16 02:32:33;;;;;;;10.33;6.67;;;18.20;99.90;;;;;;5032685;28;20443;-86
2023/08/16 02:34:59;;;;;;;11.90;6.20;;;18.20;99.90;;;;;;5027398;28;20458;-83
2023/08/16 02:37:26;;;;;;;15.40;7.10;;;18.20;99.90;;;;;;5032845;28;21670;-85
2023/08/16 02:39:51;;;;;;;8.70;5.53;;;18.20;99.90;;;;;;5032756;28;20485;-84
2023/08/16 02:42:17;;;;;;;9.50;6.40;;;18.20;99.90;;;;;;5033804;28;20838;-83
2023/08/16 02:44:43;;;;;;;12.00;6.50;;;18.30;99.90;;;;;;5035604;28;20443;-85
2023/08/16 02:47:08;;;;;;;6.63;5.93;;;18.30;99.90;;;;;;5045526;28;20225;-83
2023/08/16 02:49:34;;;;;;;10.23;6.77;;;18.30;99.90;;;;;;5057746;28;20180;-84
2023/08/16 02:51:59;;;;;;;7.43;6.37;;;18.30;99.90;;;;;;5056095;28;20198;-83
2023/08/16 02:54:25;;;;;;;8.47;6.60;;;18.30;99.90;;;;;;5042868;28;20177;-85
2023/08/16 02:56:51;;;;;;;7.20;5.63;;;18.30;99.90;;;;;;5038773;28;20215;-85
2023/08/16 02:59:17;;;;;;;8.67;6.40;;;18.30;99.90;;;;;;5057769;28;20184;-83
2023/08/16 03:01:42;;;;;;;11.50;7.30;;;18.20;99.90;;;;;;5035059;28;21079;-86
2023/08/16 03:04:08;;;;;;;13.20;6.67;;;18.20;99.90;;;;;;5033995;28;20727;-84
2023/08/16 03:06:34;;;;;;;10.13;6.60;;;18.30;99.90;;;;;;5049170;28;20232;-86
2023/08/16 03:09:00;;;;;;;16.20;6.57;;;18.30;99.90;;;;;;5036209;28;20865;-82
2023/08/16 03:11:25;;;;;;;12.33;7.70;;;18.30;99.90;;;;;;5037892;28;21002;-84
2023/08/16 03:13:51;;;;;;;7.93;6.27;;;18.30;99.90;;;;;;5030441;28;20187;-83
2023/08/16 03:16:16;;;;;;;8.37;7.10;;;18.30;99.90;;;;;;5056208;28;20621;-83
2023/08/16 03:18:42;;;;;;;14.00;7.07;;;18.40;99.90;;;;;;5038321;28;20279;-85
2023/08/16 03:21:07;;;;;;;13.03;7.83;;;18.40;99.90;;;;;;5038092;28;20232;-84
2023/08/16 03:23:33;;;;;;;9.53;6.57;;;18.50;99.90;;;;;;5055053;28;20188;-84
2023/08/16 03:25:58;;;;;;;11.93;7.17;;;18.60;99.90;;;;;;5036963;28;20249;-84
2023/08/16 03:28:24;;;;;;;10.10;7.43;;;18.70;99.90;;;;;;5031199;28;20204;-84
2023/08/16 03:30:49;;;;;;;9.60;7.07;;;18.80;99.90;;;;;;5039932;28;20269;-86
2023/08/16 03:33:15;;;;;;;9.67;6.50;;;18.80;99.90;;;;;;5038913;28;20265;-83
2023/08/16 03:35:41;;;;;;;15.93;7.40;;;;;;;;;;5037033;28;20212;-85
2023/08/16 03:38:06;;;;;;;8.07;7.03;;;18.70;99.90;;;;;;5057233;28;20262;-87
2023/08/16 03:40:32;;;;;;;13.80;8.90;;;18.60;99.90;;;;;;5044467;28;20470;-83
2023/08/16 03:42:57;;;;;;;8.53;7.53;;;18.60;99.90;;;;;;5037581;28;20190;-84
2023/08/16 03:45:25;;;;;;;10.60;7.10;;;18.60;99.90;;;;;;5039917;28;20192;-85
2023/08/16 03:47:52;;;;;;;10.13;8.07;;;18.70;99.90;;;;;;5055681;28;20237;-85
2023/08/16 03:50:17;;;;;;;9.67;7.13;;;18.80;99.90;;;;;;5038580;28;20446;-85
2023/08/16 03:52:43;;;;;;;13.20;8.17;;;18.90;99.90;;;;;;5039122;28;20435;-85
2023/08/16 03:55:09;;;;;;;8.63;7.37;;;18.90;99.90;;;;;;5062683;28;21052;-86
2023/08/16 03:57:34;;;;;;;8.40;6.83;;;18.80;99.90;;;;;;5037457;28;20232;-85
2023/08/16 04:00:00;;;;;;;10.03;6.97;;;18.90;99.90;;;;;;5055817;28;20308;-84
2023/08/16 04:02:25;;;;;;;9.13;6.33;;;18.90;99.90;;;;;;5066629;28;20204;-82
2023/08/16 04:04:53;;;;;;;6.73;5.40;;;19.10;99.90;;;;;;5062599;28;21206;-89
2023/08/16 04:07:19;;;;;;;7.00;5.30;;;19.20;99.90;;;;;;5051859;28;20212;-87
2023/08/16 04:09:44;;;;;;;10.60;6.30;;;19.40;99.90;;;;;;5037031;28;20857;-86
2023/08/16 04:12:10;;;;;;;8.60;7.03;;;19.30;99.90;;;;;;5052321;28;20445;-84
2023/08/16 04:14:35;;;;;;;16.70;7.87;;;19.40;99.90;;;;;;5039546;28;20177;-84
2023/08/16 04:17:01;;;;;;;7.53;6.70;;;19.40;99.90;;;;;;5029342;28;20696;-85
2023/08/16 04:19:26;;;;;;;8.53;7.43;;;19.50;99.90;;;;;;5036041;28;20192;-83
2023/08/16 04:21:52;;;;;;;9.87;8.23;;;19.50;99.90;;;;;;5031493;28;22231;-84
2023/08/16 04:24:17;;;;;;;10.70;8.40;;;19.50;99.90;;;;;;5026556;28;20180;-85
2023/08/16 04:26:43;;;;;;;12.27;8.20;;;19.60;99.90;;;;;;5026021;28;20204;-84
2023/08/16 04:29:09;;;;;;;9.70;8.23;;;19.70;99.90;;;;;;5049686;28;20189;-81
2023/08/16 04:31:35;;;;;;;8.53;7.67;;;19.70;99.90;;;;;;5026091;28;20454;-83
2023/08/16 04:34:04;;;;;;;11.77;9.03;;;19.70;99.90;;;;;;5024135;28;20263;-83
2023/08/16 04:36:30;;;;;;;12.20;8.00;;;19.70;99.90;;;;;;5056339;28;20228;-85
2023/08/16 04:38:56;;;;;;;12.97;7.80;;;19.70;99.90;;;;;;5045739;28;20446;-83
2023/08/16 04:41:22;;;;;;;9.90;7.63;;;19.80;99.90;;;;;;5056787;28;20450;-83
2023/08/16 04:43:48;;;;;;;10.83;8.37;;;19.80;99.90;;;;;;5075915;28;21007;-83
2023/08/16 04:46:13;;;;;;;8.77;7.53;;;19.90;99.90;;;;;;5078778;28;20238;-84
2023/08/16 04:48:40;;;;;;;7.53;6.80;;;20.10;99.90;;;;;;5058233;28;20434;-84
2023/08/16 04:58:45;;;;;;;8.33;5.40;;;;;;;;;;5013646;28;20873;-84
2023/08/16 05:01:10;;;;;;;5.43;4.90;;;22.50;99.90;;;;;;5004993;28;20506;-84
2023/08/16 05:03:36;;;;;;;6.00;5.00;;;23.10;99.90;;;;;;5000124;28;20436;-83
2023/08/16 05:06:03;;;;;;;11.70;6.00;;;23.70;99.90;;;;;;4988237;28;20262;-85
2023/08/16 05:08:30;;;;;;;7.47;6.07;;;23.80;99.90;;;;;;4997123;28;20186;-86
2023/08/16 05:10:56;;;;;;;5.67;4.80;;;24.00;99.90;;;;;;4986380;28;20464;-84
2023/08/16 05:13:22;;;;;;;10.00;6.07;;;24.00;99.90;;;;;;4994995;28;21387;-88
2023/08/16 05:15:48;;;;;;;8.43;5.90;;;24.40;99.90;;;;;;4977026;28;20454;-86
2023/08/16 05:18:13;;;;;;;9.80;5.80;;;24.90;99.90;;;;;;4985061;28;21028;-86
2023/08/16 05:20:39;;;;;;;7.17;6.07;;;24.20;99.90;;;;;;4998172;28;20286;-87
2023/08/16 05:23:05;;;;;;;6.63;5.67;;;23.80;99.90;;;;;;4979662;28;20198;-82
2023/08/16 05:25:30;;;;;;;7.97;6.23;;;24.30;99.90;;;;;;4981892;28;20739;-85
2023/08/16 05:27:58;;;;;;;6.90;5.73;;;25.20;99.90;;;;;;4991367;28;20669;-85
2023/08/16 05:30:25;;;;;;;7.43;6.30;;;26.30;99.90;;;;;;4974332;28;20202;-88
2023/08/16 05:32:52;;;;;;;5.93;5.27;;;27.30;99.90;;;;;;4991186;28;20874;-85
2023/08/16 05:35:17;;;;;;;8.20;6.23;;;27.90;99.90;;;;;;4974879;28;21070;-87
2023/08/16 05:37:43;;;;;;;7.57;6.00;;;28.80;99.90;;;;;;4982789;28;20448;-85
2023/08/16 05:40:09;;;;;;;10.67;5.87;;;29.80;99.90;;;;;;4974533;28;23449;-84
2023/08/16 05:42:35;;;;;;;6.10;5.33;;;;;;;;;;4982521;28;20179;-84
2023/08/16 05:45:00;;;;;;;5.97;5.00;;;32.00;99.90;;;;;;4973037;28;20452;-84
2023/08/16 05:47:26;;;;;;;5.80;5.20;;;32.70;99.90;;;;;;4967462;28;20449;-85
2023/08/16 05:49:51;;;;;;;6.70;4.70;;;33.00;99.90;;;;;;4965559;28;20269;-84
2023/08/16 05:52:17;;;;;;;5.20;4.07;;;32.60;99.90;;;;;;4982881;28;20327;-85
2023/08/16 05:54:42;;;;;;;8.30;5.10;;;32.10;99.90;;;;;;4968282;28;20191;-87
2023/08/16 05:57:08;;;;;;;8.90;5.30;;;31.40;99.90;;;;;;4974148;28;20220;-84
2023/08/16 05:59:33;;;;;;;6.80;4.77;;;29.60;99.90;;;;;;4990086;28;20197;-86
2023/08/16 06:01:59;;;;;;;7.00;6.30;;;;;;;;;;4979213;28;20618;-85
2023/08/16 06:04:25;;;;;;;7.43;6.07;;;27.30;99.90;;;;;;4983078;28;20191;-84
2023/08/16 06:06:51;;;;;;;7.27;6.23;;;25.90;99.90;;;;;;4988687;28;20461;-85
2023/08/16 06:09:17;;;;;;;12.30;7.57;;;24.80;99.90;;;;;;4991716;28;20444;-83
2023/08/16 06:11:42;;;;;;;10.53;8.63;;;23.90;99.90;;;;;;5008454;28;20211;-84
2023/08/16 06:14:08;;;;;;;9.33;8.40;;;23.30;99.90;;;;;;5007162;28;20189;-83
2023/08/16 06:16:34;;;;;;;10.77;7.60;;;23.10;99.90;;;;;;5020441;28;20775;-82
2023/08/16 06:19:00;;;;;;;13.30;8.60;;;22.80;99.90;;;;;;5005200;28;20282;-84
2023/08/16 06:21:25;;;;;;;12.87;8.00;;;22.60;99.90;;;;;;4998567;28;20496;-85
2023/08/16 06:23:54;;;;;;;9.70;8.17;;;22.70;99.90;;;;;;5010883;28;20259;-85
2023/08/16 06:26:19;;;;;;;9.30;7.90;;;23.00;99.90;;;;;;4996787;28;20459;-86
2023/08/16 06:28:46;;;;;;;10.10;8.23;;;23.40;99.90;;;;;;4990136;28;20795;-86
2023/08/16 06:31:11;;;;;;;18.43;8.00;;;23.60;99.90;;;;;;5000863;28;20182;-83
2023/08/16 06:33:37;;;;;;;13.63;8.00;;;23.60;99.90;;;;;;4968946;28;20447;-86
2023/08/16 06:36:03;;;;;;;15.27;9.63;;;23.30;99.90;;;;;;4983825;28;20467;-83
2023/08/16 06:38:28;;;;;;;9.70;7.30;;;23.20;99.90;;;;;;5000687;28;20183;-84
2023/08/16 06:40:55;;;;;;;9.73;8.73;;;23.20;99.90;;;;;;4982480;28;20221;-86
2023/08/16 06:43:20;;;;;;;11.53;8.33;;;24.10;99.90;;;;;;4991218;28;20238;-84
2023/08/16 06:45:46;;;;;;;8.63;7.73;;;23.20;99.90;;;;;;4989111;28;20454;-85
2023/08/16 06:48:11;;;;;;;10.10;8.17;;;23.40;99.90;;;;;;4977889;28;20197;-86
2023/08/16 06:50:38;;;;;;;13.87;9.37;;;23.60;99.90;;;;;;4980291;28;20206;-85
2023/08/16 06:53:03;;;;;;;9.27;7.90;;;24.10;99.90;;;;;;4995836;28;20217;-87
2023/08/16 06:55:29;;;;;;;10.47;8.03;;;25.10;99.90;;;;;;4975819;28;20441;-88
2023/08/16 06:57:54;;;;;;;8.70;7.47;;;26.60;99.90;;;;;;5004387;28;20191;-88
2023/08/16 07:00:20;;;;;;;7.67;6.83;;;27.60;99.90;;;;;;4985128;28;20210;-84
2023/08/16 07:02:48;;;;;;;7.50;6.80;;;28.00;99.90;;;;;;4976639;28;20240;-84
2023/08/16 07:05:13;;;;;;;8.23;6.63;;;29.40;99.90;;;;;;4978916;28;20647;-85
2023/08/16 07:07:39;;;;;;;12.03;7.77;;;29.40;99.90;;;;;;4993978;28;20442;-87
2023/08/16 07:10:06;;;;;;;8.60;6.80;;;29.60;99.90;;;;;;4995753;28;20212;-86
2023/08/16 07:12:32;;;;;;;12.47;7.97;;;;;;;;;;4997632;28;20192;-85
2023/08/16 07:14:57;;;;;;;8.27;7.03;;;28.60;99.90;;;;;;4981870;28;21073;-86
2023/08/16 07:17:23;;;;;;;14.33;8.47;;;28.40;99.90;;;;;;4976344;28;20466;-83
2023/08/16 07:19:50;;;;;;;7.93;7.13;;;28.20;99.90;;;;;;4985511;28;20197;-85
2023/08/16 07:22:16;;;;;;;8.60;7.13;;;27.90;99.90;;;;;;4998849;28;20195;-82
2023/08/16 07:24:41;;;;;;;8.03;7.23;;;27.50;99.90;;;;;;4991654;28;20550;-85
2023/08/16 07:27:07;;;;;;;8.37;7.53;;;27.10;99.90;;;;;;4985816;28;20212;-83
2023/08/16 07:29:33;;;;;;;9.47;7.40;;;26.50;99.90;;;;;;4996006;28;20284;-87
2023/08/16 07:31:58;;;;;;;19.30;7.80;;;26.20;99.90;;;;;;4985822;28;20199;-84
2023/08/16 07:34:24;;;;;;;7.90;7.10;;;26.10;99.90;;;;;;4986981;28;20187;-83
2023/08/16 07:36:49;;;;;;;8.80;7.87;;;26.10;99.90;;;;;;4983841;28;20209;-85
2023/08/16 07:39:15;;;;;;;12.27;9.50;;;25.60;99.90;;;;;;4983934;28;20196;-85
2023/08/16 07:41:40;;;;;;;11.00;8.77;;;25.20;99.90;;;;;;4990987;28;20299;-86
2023/08/16 07:44:06;;;;;;;11.40;8.30;;;24.70;99.90;;;;;;4990569;28;20188;-86
2023/08/16 07:46:31;;;;;;;9.87;8.57;;;24.40;99.90;;;;;;4981966;28;20244;-82
2023/08/16 07:48:58;;;;;;;13.20;9.50;;;24.00;99.90;;;;;;4980254;28;20187;-85
2023/08/16 07:51:23;;;;;;;12.67;9.50;;;23.60;99.90;;;;;;4984551;28;20189;-85
2023/08/16 07:53:49;;;;;;;20.33;9.20;;;23.50;99.90;;;;;;4983718;28;20491;-85
2023/08/16 07:56:14;;;;;;;13.10;8.87;;;23.30;99.90;;;;;;4995751;28;20310;-84
2023/08/16 07:58:40;;;;;;;12.17;8.77;;;23.10;99.90;;;;;;4995097;28;20211;-84
2023/08/16 08:01:05;;;;;;;11.53;9.50;;;22.90;99.90;;;;;;4993805;28;20213;-84
2023/08/16 08:03:31;;;;;;;10.57;8.00;;;22.80;99.90;;;;;;4987279;28;20726;-85
2023/08/16 08:06:01;;;;;;;10.00;8.03;;;22.90;99.90;;;;;;4979185;28;20216;-85
2023/08/16 08:08:27;;;;;;;11.97;7.87;;;23.40;99.90;;;;;;4979359;28;20194;-85
2023/08/16 08:10:52;;;;;;;10.53;7.50;;;25.20;99.90;;;;;;4993069;28;20433;-84
2023/08/16 08:13:18;;;;;;;8.90;6.53;;;28.40;99.90;;;;;;4983218;28;20600;-84
2023/08/16 08:15:43;;;;;;;11.23;6.53;;;31.40;99.90;;;;;;4990933;28;20211;-84
2023/08/16 08:18:09;;;;;;;7.93;6.53;;;33.90;99.90;;;;;;4992923;28;22129;-86
2023/08/16 08:20:37;;;;;;;7.20;6.03;;;35.60;99.90;;;;;;5002283;28;20747;-86
2023/08/16 08:23:03;;;;;;;9.33;6.20;;;36.10;99.90;;;;;;4984584;28;20192;-86
2023/08/16 08:25:29;;;;;;;12.33;6.97;;;35.70;99.90;;;;;;4998626;28;20482;-85
2023/08/16 08:27:55;;;;;;;15.97;7.13;;;35.00;99.90;;;;;;4994495;28;20543;-86
2023/08/16 08:30:21;;;;;;;7.33;5.90;;;34.10;99.90;;;;;;5012945;28;20458;-84
2023/08/16 08:32:47;;;;;;;8.70;6.30;;;33.80;99.90;;;;;;5000502;28;20455;-85
2023/08/16 08:35:13;;;;;;;8.10;6.37;;;33.80;99.90;;;;;;5002519;28;20196;-85
2023/08/16 08:37:38;;;;;;;13.80;8.03;;;33.40;99.90;;;;;;4993778;28;20195;-85
2023/08/16 08:40:05;;;;;;;8.47;6.80;;;32.40;99.90;;;;;;4966287;28;20218;-85
2023/08/16 08:42:31;;;;;;;10.90;7.13;;;32.50;99.90;;;;;;4964849;28;20673;-85
2023/08/16 08:44:59;;;;;;;8.00;5.90;;;34.60;99.90;;;;;;4985253;28;20505;-88
2023/08/16 08:47:24;;;;;;;8.97;6.50;;;34.50;99.90;;;;;;4971731;28;21469;-88
2023/08/16 08:49:51;;;;;;;8.93;6.60;;;36.40;99.80;;;;;;4987432;28;20503;-86
2023/08/16 08:52:18;;;;;;;10.03;6.33;;;37.50;96.90;;;;;;4996414;28;20177;-81
2023/08/16 08:54:44;;;;;;;9.90;7.33;;;38.20;93.00;;;;;;5002586;28;20472;-83
2023/08/16 08:57:10;;;;;;;8.77;6.30;;;38.00;91.70;;;;;;4999711;28;20518;-87
2023/08/16 08:59:39;;;;;;;8.73;6.87;;;37.60;92.70;;;;;;4995541;28;21001;-82
2023/08/16 09:02:05;;;;;;;11.23;6.17;;;38.00;91.80;;;;;;4972695;28;21265;-90
2023/08/16 09:04:33;;;;;;;6.30;5.80;;;38.70;89.30;;;;;;4975368;28;20440;-85
2023/08/16 09:07:03;;;;;;;6.97;5.30;;;38.60;89.90;;;;;;4992194;28;20457;-86
2023/08/16 09:09:29;;;;;;;8.73;6.03;;;38.90;87.90;;;;;;4977084;28;20513;-85
2023/08/16 09:11:58;;;;;;;7.30;6.30;;;39.30;83.90;;;;;;4981633;28;20517;-86
2023/08/16 09:14:24;;;;;;;11.60;6.00;;;;;;;;;;4991239;28;20647;-88
2023/08/16 09:16:50;;;;;;;10.43;6.03;;;38.40;83.90;;;;;;4974023;28;20455;-85
2023/08/16 09:19:15;;;;;;;8.60;5.70;;;37.60;85.80;;;;;;4979984;28;20537;-85
2023/08/16 09:21:42;;;;;;;10.60;7.67;;;36.70;85.90;;;;;;5001236;28;20481;-83
2023/08/16 09:24:08;;;;;;;8.20;6.80;;;;;;;;;;4986660;28;20189;-85
2023/08/16 09:26:36;;;;;;;8.60;6.20;;;36.90;86.40;;;;;;5002994;28;20479;-85
2023/08/16 09:29:03;;;;;;;7.47;6.10;;;37.70;86.80;;;;;;4992160;28;20962;-88
2023/08/16 09:31:39;;;;;;;8.23;5.50;;;38.20;82.70;;;;;;4993538;28;21169;-85
2023/08/16 09:34:06;;;;;;;10.27;5.97;;;38.10;83.30;;;;;;4975604;28;20437;-84
2023/08/16 09:36:35;;;;;;;8.23;6.13;;;38.20;82.90;;;;;;4998258;28;20469;-84
2023/08/16 09:39:04;;;;;;;7.30;6.57;;;38.60;82.20;;;;;;4974064;28;20573;-87
2023/08/16 09:41:31;;;;;;;6.80;6.20;;;39.40;80.70;;;;;;4983227;28;20506;-82
2023/08/16 09:44:07;;;;;;;8.67;6.67;;;40.00;77.40;;;;;;4986150;28;20479;-84
2023/08/16 09:46:33;;;;;;;7.30;5.83;;;40.40;74.90;;;;;;4970838;28;20997;-83
2023/08/16 09:49:06;;;;;;;15.00;6.03;;;41.00;75.00;;;;;;4986280;28;21506;-83
2023/08/16 09:51:36;;;;;;;8.03;6.73;;;41.20;70.40;;;;;;5004801;28;20454;-85
2023/08/16 09:54:08;;;;;;;8.80;6.80;;;41.00;70.40;;;;;;5000620;28;20465;-87
2023/08/16 09:56:34;;;;;;;10.00;6.00;;;39.00;72.60;;;;;;4994294;28;20513;-84
2023/08/16 09:59:00;;;;;;;7.60;6.83;;;37.60;78.70;;;;;;4996072;28;20528;-86
2023/08/16 10:01:27;;;;;;;8.00;7.03;;;36.40;80.10;;;;;;4992507;28;20504;-85
2023/08/16 10:03:56;;;;;;;10.93;6.80;;;35.20;85.10;;;;;;5008882;28;20220;-87
2023/08/16 10:06:23;;;;;;;10.70;6.83;;;;;;;;;;4998499;28;20445;-87
2023/08/16 10:08:52;;;;;;;8.70;7.37;;;35.00;89.60;;;;;;5010534;28;20456;-84
2023/08/16 10:11:18;;;;;;;8.03;7.23;;;35.00;90.00;;;;;;5012944;28;20437;-86
2023/08/16 10:13:45;;;;;;;13.87;7.83;;;35.20;90.20;;;;;;4998535;28;20419;-82
2023/08/16 10:16:14;;;;;;;16.20;7.37;;;35.50;89.90;;;;;;4992926;28;20698;-85
2023/08/16 10:18:42;;;;;;;6.90;6.20;;;35.50;90.90;;;;;;5012308;28;20447;-88
2023/08/16 10:21:18;;;;;;;9.00;7.63;;;35.30;91.00;;;;;;5009866;28;20472;-84
2023/08/16 10:23:47;;;;;;;8.40;7.27;;;35.10;90.60;;;;;;5011793;28;20431;-83
2023/08/16 10:26:14;;;;;;;8.67;6.77;;;35.30;90.80;;;;;;4975178;28;20463;-86
2023/08/16 10:28:44;;;;;;;9.00;6.67;;;34.80;91.60;;;;;;4988752;28;20468;-87
2023/08/16 10:31:11;;;;;;;7.23;6.53;;;34.50;92.80;;;;;;4990500;28;20527;-86
2023/08/16 10:33:39;;;;;;;9.17;5.83;;;34.50;92.60;;;;;;4973780;28;20465;-84
2023/08/16 10:36:06;;;;;;;10.87;6.57;;;34.50;93.30;;;;;;4984950;28;20472;-86
2023/08/16 10:38:41;;;;;;;7.67;6.17;;;34.40;93.10;;;;;;4990456;28;20455;-86
2023/08/16 10:41:11;;;;;;;7.27;6.40;;;34.30;93.60;;;;;;4999265;28;20983;-87
2023/08/16 10:43:37;;;;;;;9.17;7.07;;;33.90;94.20;;;;;;5007482;28;20440;-82
2023/08/16 10:46:03;;;;;;;7.23;6.60;;;;;;;;;;4983736;28;20456;-90
2023/08/16 10:48:35;;;;;;;7.17;6.47;;;33.60;94.50;;;;;;4992660;28;20189;-82
2023/08/16 10:51:04;;;;;;;7.47;6.40;;;33.20;95.50;;;;;;4977235;28;20507;-85
2023/08/16 10:53:30;;;;;;;7.17;6.17;;;32.80;96.50;;;;;;4973299;28;21195;-83
2023/08/16 10:55:56;;;;;;;10.00;6.87;;;32.40;98.80;;;;;;4977487;28;20512;-87
2023/08/16 10:58:23;;;;;;;13.33;6.47;;;32.10;99.00;;;;;;4993123;28;20441;-86
2023/08/16 11:00:57;;;;;;;7.93;6.60;;;31.90;99.90;;;;;;4975544;28;20479;-85
2023/08/16 11:03:33;;;;;;;9.37;7.63;;;31.60;99.90;;;;;;4986989;28;20447;-86
2023/08/16 11:06:00;;;;;;;10.13;6.37;;;31.20;99.90;;;;;;4987995;28;20971;-85
2023/08/16 11:08:30;;;;;;;8.10;6.57;;;31.20;99.90;;;;;;4979124;28;20446;-83
2023/08/16 11:10:56;;;;;;;7.20;6.50;;;31.60;99.90;;;;;;4990199;28;20433;-84
2023/08/16 11:13:21;;;;;;;12.73;7.20;;;32.00;99.90;;;;;;4980389;28;20460;-84
2023/08/16 11:15:47;;;;;;;7.23;6.17;;;32.10;99.90;;;;;;4973188;28;20211;-86
2023/08/16 11:18:13;;;;;;;8.30;6.37;;;32.10;99.90;;;;;;4987971;28;20581;-85
2023/08/16 11:20:40;;;;;;;7.70;6.30;;;32.20;99.90;;;;;;4991745;28;20226;-86
2023/08/16 11:23:06;;;;;;;7.37;6.50;;;32.10;99.90;;;;;;4996831;28;20426;-84
2023/08/16 11:25:35;;;;;;;7.60;6.80;;;32.00;99.90;;;;;;4987286;28;20430;-82
2023/08/16 11:28:03;;;;;;;8.60;6.50;;;31.90;99.90;;;;;;4989784;28;20453;-82
2023/08/16 11:30:30;;;;;;;11.03;6.33;;;31.90;99.90;;;;;;5006378;28;20432;-83
2023/08/16 11:32:56;;;;;;;7.27;6.50;;;31.80;99.90;;;;;;5011811;28;20461;-83
2023/08/16 11:35:23;;;;;;;7.17;6.20;;;31.80;99.90;;;;;;4983938;28;20435;-84
2023/08/16 11:37:49;;;;;;;9.70;6.67;;;31.80;99.90;;;;;;4991065;28;20525;-87
2023/08/16 11:40:15;;;;;;;6.73;6.07;;;31.90;99.90;;;;;;4997163;28;21034;-83
2023/08/16 11:42:40;;;;;;;10.40;6.57;;;32.00;99.90;;;;;;4980158;28;20188;-85
2023/08/16 11:45:23;;;;;;;7.50;5.40;;;31.80;99.90;;;;;;4980851;28;20254;-85
2023/08/16 11:47:53;;;;;;;9.87;7.27;;;31.50;99.90;;;;;;4980604;28;20606;-84
2023/08/16 11:50:22;;;;;;;8.43;6.43;;;31.30;99.90;;;;;;4996517;28;20480;-84
2023/08/16 11:52:58;;;;;;;7.87;5.90;;;31.20;99.90;;;;;;4982746;28;20436;-86
2023/08/16 11:55:25;;;;;;;10.57;6.37;;;31.20;99.90;;;;;;4996061;28;20487;-86
2023/08/16 11:57:51;;;;;;;9.07;7.10;;;31.10;99.90;;;;;;4975337;28;20459;-82
2023/08/16 12:00:29;;;;;;;8.70;6.73;;;31.30;99.90;;;;;;4986319;28;23496;-84
2023/08/16 12:02:57;;;;;;;7.83;6.90;;;31.20;99.90;;;;;;4983965;28;20435;-85
2023/08/16 12:05:23;;;;;;;6.27;5.67;;;31.30;99.90;;;;;;5009899;28;20474;-84
2023/08/16 12:07:52;;;;;;;9.67;7.17;;;31.20;99.90;;;;;;4988865;28;20488;-86
2023/08/16 12:10:26;;;;;;;8.67;6.20;;;31.10;99.90;;;;;;4999663;28;20946;-84
2023/08/16 12:12:54;;;;;;;7.40;6.60;;;31.20;99.90;;;;;;4981196;28;20443;-84
2023/08/16 12:15:23;;;;;;;8.77;6.17;;;30.90;99.90;;;;;;4983141;28;20605;-83
2023/08/16 12:17:49;;;;;;;7.37;6.20;;;31.00;99.90;;;;;;4979260;28;20454;-83
2023/08/16 12:20:14;;;;;;;7.70;6.40;;;30.80;99.90;;;;;;4995282;28;20878;-85
2023/08/16 12:22:40;;;;;;;8.43;5.90;;;30.90;99.90;;;;;;4990395;28;20522;-85
2023/08/16 12:25:06;;;;;;;8.60;7.80;;;31.10;99.90;;;;;;4989619;28;21124;-84
2023/08/16 12:27:31;;;;;;;8.17;6.63;;;31.30;99.90;;;;;;4978657;28;20609;-87
2023/08/16 12:29:57;;;;;;;8.70;6.53;;;31.60;99.90;;;;;;4998736;28;20443;-88
2023/08/16 12:32:22;;;;;;;7.43;6.47;;;31.70;99.90;;;;;;4995597;28;20190;-86
2023/08/16 12:34:48;;;;;;;8.53;6.13;;;31.70;99.90;;;;;;4978284;28;20797;-86
2023/08/16 12:37:13;;;;;;;8.00;6.40;;;31.60;99.90;;;;;;4979806;28;20201;-85
2023/08/16 12:39:39;;;;;;;12.97;7.43;;;31.50;99.90;;;;;;4980039;28;20181;-81
2023/08/16 12:42:04;;;;;;;6.53;5.57;;;31.60;99.90;;;;;;4984187;28;20213;-84
2023/08/16 12:44:30;;;;;;;6.30;5.73;;;31.40;99.90;;;;;;4993354;28;20230;-86
2023/08/16 12:46:55;;;;;;;10.07;6.27;;;31.70;99.90;;;;;;4975799;28;21235;-85
2023/08/16 12:49:21;;;;;;;6.10;5.50;;;32.00;99.90;;;;;;4988577;28;20217;-85
2023/08/16 12:51:47;;;;;;;6.83;6.17;;;32.20;99.90;;;;;;5004428;28;20606;-86
2023/08/16 12:54:12;;;;;;;10.67;7.37;;;32.30;99.90;;;;;;5000499;28;20246;-86